Time;durP1;ratioP1;P1;durP2;ratioP2;P2;SDS_P1;SDS_P2;PMS_P1;PMS_P2;Temp;Humidity;BMP_temperature;BMP_pressure;BME280_temperature;BME280_humidity;BME280_pressure;Samples;Min_cycle;Max_cycle;Signal;HPM_P1;HPM_P2
2022/07/17 00:00:19;;;;;;;2.70;2.10;;;;;;;21.31;71.63;101538.72;6124425;23;20002;-88
2022/07/17 00:02:47;;;;;;;2.95;2.40;;;;;;;21.33;71.73;101538.59;6124405;23;20010;-90
2022/07/17 00:05:13;;;;;;;2.33;2.00;;;;;;;21.24;70.77;101526.09;6124726;23;20013;-90
2022/07/17 00:07:38;;;;;;;2.47;2.13;;;;;;;21.29;71.42;101530.03;6124604;23;20010;-89
2022/07/17 00:10:04;;;;;;;2.60;2.05;;;;;;;21.29;70.31;101522.00;6147489;23;20069;-89
2022/07/17 00:12:30;;;;;;;2.97;2.60;;;;;;;21.07;72.08;101525.03;6123705;23;20437;-89
2022/07/17 00:14:55;;;;;;;2.25;2.05;;;;;;;21.15;72.11;101517.16;6124834;23;20013;-88
2022/07/17 00:17:21;;;;;;;3.35;2.10;;;;;;;21.10;71.96;101517.56;6124526;23;20010;-88
2022/07/17 00:19:46;;;;;;;10.05;2.70;;;;;;;21.04;72.27;101525.34;6124843;23;20425;-88
2022/07/17 00:22:12;;;;;;;3.35;2.60;;;;;;;20.87;72.97;101522.41;6124489;23;20006;-88
2022/07/17 00:24:37;;;;;;;3.22;2.47;;;;;;;20.81;71.80;101531.00;6123928;23;20006;-88
2022/07/17 00:27:02;;;;;;;4.25;2.20;;;;;;;20.80;72.63;101518.66;6122566;23;20085;-89
2022/07/17 00:29:28;;;;;;;3.67;2.60;;;;;;;20.58;73.50;101520.63;6125980;23;20002;-90
2022/07/17 00:31:53;;;;;;;6.03;2.30;;;;;;;20.78;73.06;101521.47;6126404;23;20006;-89
2022/07/17 00:34:18;;;;;;;2.28;2.08;;;;;;;20.74;72.38;101516.56;6124893;23;20505;-89
2022/07/17 00:36:44;;;;;;;4.43;2.50;;;;;;;20.77;72.72;101514.44;6126093;23;20005;-89
2022/07/17 00:39:10;;;;;;;3.97;2.00;;;;;;;20.52;73.19;101512.34;6126572;23;20009;-91
2022/07/17 00:41:35;;;;;;;3.00;2.63;;;;;;;20.39;72.51;101512.63;6123743;23;20002;-90
2022/07/17 00:44:09;;;;;;;3.25;2.45;;;;;;;20.74;71.71;101508.56;6126514;23;19998;-90
2022/07/17 00:46:34;;;;;;;3.63;2.10;;;;;;;20.76;71.73;101511.91;6126348;23;20041;-90
2022/07/17 00:49:01;;;;;;;3.33;2.47;;;;;;;20.58;71.22;101490.44;6126544;23;20002;-91
2022/07/17 00:51:26;;;;;;;2.22;2.00;;;;;;;20.18;71.86;101489.63;6126410;23;20010;-90
2022/07/17 00:53:52;;;;;;;3.90;2.38;;;;;;;20.29;71.97;101503.81;6126075;23;20080;-90
2022/07/17 00:56:20;;;;;;;2.90;2.10;;;;;;;20.30;71.66;101502.81;6125031;23;20038;-91
2022/07/17 00:58:48;;;;;;;4.60;2.38;;;;;;;20.19;71.91;101491.31;6126028;23;20002;-91
2022/07/17 01:01:13;;;;;;;4.15;2.50;;;;;;;20.01;73.72;101493.00;6126164;23;20002;-91
2022/07/17 01:03:38;;;;;;;3.45;2.20;;;;;;;20.28;72.18;101488.75;6125670;23;20002;-89
2022/07/17 01:06:04;;;;;;;2.90;2.58;;;;;;;20.30;71.65;101495.66;6149171;23;20033;-90
2022/07/17 01:08:30;;;;;;;3.30;2.42;;;;;;;20.30;71.24;101489.47;6126163;23;20073;-90
2022/07/17 01:10:55;;;;;;;2.95;2.38;;;;;;;20.23;71.35;101489.19;6125437;23;20425;-90
2022/07/17 01:13:20;;;;;;;2.20;1.75;;;;;;;20.25;72.03;101483.72;6125893;23;20084;-90
2022/07/17 01:15:46;;;;;;;4.25;2.28;;;;;;;20.24;71.77;101484.69;6124457;23;20218;-90
2022/07/17 01:18:14;;;;;;;2.70;2.05;;;;;;;20.35;71.48;101487.22;6125420;23;20082;-89
2022/07/17 01:20:42;;;;;;;2.88;1.90;;;;;;;20.23;71.04;101493.69;6126067;23;20013;-89
2022/07/17 01:23:08;;;;;;;4.82;1.92;;;;;;;20.24;70.95;101490.03;6126083;23;20069;-89
2022/07/17 01:25:34;;;;;;;2.97;1.90;;;;;;;20.19;70.81;101487.81;6125365;23;20035;-89
2022/07/17 01:28:00;;;;;;;3.38;2.22;;;;;;;20.21;71.64;101499.16;6125671;23;20077;-90
2022/07/17 01:30:26;;;;;;;3.25;1.70;;;;;;;20.19;71.00;101493.97;6125334;23;20507;-89
2022/07/17 01:32:52;;;;;;;3.78;2.13;;;;;;;20.16;71.64;101486.25;6123766;23;20010;-89
2022/07/17 01:35:18;;;;;;;3.35;1.88;;;;;;;20.20;72.31;101501.00;6124287;23;20416;-90
2022/07/17 01:37:44;;;;;;;2.80;1.90;;;;;;;20.20;72.18;101495.66;6125925;23;20001;-89
2022/07/17 01:40:14;;;;;;;2.67;1.85;;;;;;;20.16;72.10;101502.25;6124714;23;20006;-90
2022/07/17 01:42:43;;;;;;;2.22;1.85;;;;;;;20.20;72.62;101495.66;6124305;23;20006;-89
2022/07/17 01:45:09;;;;;;;3.97;2.35;;;;;;;20.18;73.00;101497.63;6125525;23;20021;-89
2022/07/17 01:47:34;;;;;;;2.67;2.00;;;;;;;20.23;72.88;101488.38;6125284;23;20002;-89
2022/07/17 01:50:01;;;;;;;2.40;1.85;;;;;;;20.29;72.75;101491.28;6125564;23;20073;-89
2022/07/17 01:52:27;;;;;;;2.63;1.83;;;;;;;20.32;73.14;101498.16;6125677;23;20030;-89
2022/07/17 01:54:53;;;;;;;2.13;1.80;;;;;;;20.29;72.78;101496.63;6125101;23;20053;-89
2022/07/17 01:57:19;;;;;;;3.13;2.08;;;;;;;20.33;72.84;101498.03;6125927;23;20037;-89
2022/07/17 01:59:45;;;;;;;2.78;1.80;;;;;;;20.40;71.87;101509.00;6125551;23;20005;-90
2022/07/17 02:02:11;;;;;;;2.75;1.67;;;;;;;20.33;69.70;101487.38;6123594;23;20081;-89
2022/07/17 02:04:38;;;;;;;2.30;1.95;;;;;;;20.40;70.84;101490.31;6147987;23;20036;-90
2022/07/17 02:07:04;;;;;;;2.97;1.90;;;;;;;20.40;68.27;101498.31;6125630;23;20006;-88
2022/07/17 02:09:30;;;;;;;2.20;1.63;;;;;;;20.29;69.23;101499.31;6126295;23;20009;-88
2022/07/17 02:11:56;;;;;;;2.38;1.77;;;;;;;20.33;69.10;101499.88;6148760;23;20010;-90
2022/07/17 02:14:22;;;;;;;2.67;1.75;;;;;;;20.39;69.38;101500.13;6125718;23;20037;-90
2022/07/17 02:16:47;;;;;;;1.98;1.50;;;;;;;20.32;69.12;101488.38;6125326;23;20009;-90
2022/07/17 02:19:13;;;;;;;2.38;1.60;;;;;;;20.34;69.89;101501.53;6125582;23;20006;-90
2022/07/17 02:21:39;;;;;;;2.67;1.80;;;;;;;20.37;69.69;101501.25;6125492;23;20044;-92
2022/07/17 02:24:04;;;;;;;3.65;2.03;;;;;;;20.49;67.45;101494.78;6123808;23;19998;-90
2022/07/17 02:26:30;;;;;;;3.95;2.10;;;;;;;20.46;69.01;101492.41;6125080;23;20002;-90
2022/07/17 02:28:55;;;;;;;2.42;1.95;;;;;;;20.45;68.61;101496.06;6125828;23;20371;-90
2022/07/17 02:31:21;;;;;;;2.45;1.90;;;;;;;20.47;69.16;101491.41;6125524;23;20010;-90
2022/07/17 02:33:46;;;;;;;3.20;2.03;;;;;;;20.48;68.96;101493.13;6148121;23;20029;-90
2022/07/17 02:36:11;;;;;;;1.73;1.23;;;;;;;20.45;69.17;101501.41;6125609;23;20006;-90
2022/07/17 02:38:37;;;;;;;4.70;2.03;;;;;;;20.43;68.37;101498.03;6125494;23;20080;-89
2022/07/17 02:41:02;;;;;;;1.92;1.33;;;;;;;20.42;67.13;101491.03;6123870;23;20460;-90
2022/07/17 02:43:28;;;;;;;1.90;1.42;;;;;;;20.38;67.85;101505.63;6123941;23;20006;-90
2022/07/17 02:45:53;;;;;;;1.88;1.20;;;;;;;20.29;68.39;101501.97;6123853;23;20002;-90
2022/07/17 02:48:18;;;;;;;1.58;1.35;;;;;;;20.23;66.81;101505.19;6125570;23;20010;-90
2022/07/17 02:50:44;;;;;;;2.72;1.60;;;;;;;20.17;67.00;101506.59;6125014;23;20172;-90
2022/07/17 02:53:09;;;;;;;3.28;1.35;;;;;;;20.17;67.48;101500.44;6125184;23;20030;-90
2022/07/17 02:55:35;;;;;;;1.40;1.30;;;;;;;20.02;67.78;101510.66;6124896;23;20002;-90
2022/07/17 02:58:00;;;;;;;4.20;1.52;;;;;;;19.99;68.14;101508.28;6125064;23;20013;-90
2022/07/17 03:00:26;;;;;;;2.63;1.50;;;;;;;19.98;67.79;101517.25;6125014;23;20121;-90
2022/07/17 03:02:53;;;;;;;4.25;1.92;;;;;;;19.86;67.41;101510.38;6148077;23;20013;-90
2022/07/17 03:05:18;;;;;;;2.13;1.40;;;;;;;19.92;66.90;101507.97;6125412;23;20002;-90
2022/07/17 03:07:45;;;;;;;1.42;1.10;;;;;;;19.88;66.96;101508.41;6123605;23;20086;-91
2022/07/17 03:10:11;;;;;;;2.30;1.45;;;;;;;19.84;67.40;101499.00;6125214;23;20421;-90
2022/07/17 03:12:37;;;;;;;2.72;1.40;;;;;;;19.81;68.00;101494.78;6147629;23;20010;-90
2022/07/17 03:15:03;;;;;;;3.35;1.63;;;;;;;19.72;69.15;101499.13;6123330;23;20028;-90
2022/07/17 03:17:29;;;;;;;2.05;1.67;;;;;;;19.75;69.23;101503.34;6124907;23;20456;-89
2022/07/17 03:19:54;;;;;;;3.00;1.52;;;;;;;19.55;69.20;101507.72;6123006;23;20004;-90
2022/07/17 03:22:19;;;;;;;3.47;1.70;;;;;;;19.39;68.20;101511.78;6124412;23;20008;-89
2022/07/17 03:24:45;;;;;;;2.75;1.63;;;;;;;19.61;67.00;101504.53;6124975;23;20002;-89
2022/07/17 03:27:10;;;;;;;2.63;1.30;;;;;;;19.49;67.87;101517.13;6125161;23;20002;-89
2022/07/17 03:29:36;;;;;;;3.03;1.08;;;;;;;19.31;67.49;101505.41;6124642;23;20049;-90
2022/07/17 03:32:01;;;;;;;1.98;1.30;;;;;;;19.48;67.19;101494.13;6124743;23;20085;-89
2022/07/17 03:34:26;;;;;;;2.47;1.48;;;;;;;19.38;67.00;101494.09;6123356;23;20010;-89
2022/07/17 03:36:52;;;;;;;1.88;1.60;;;;;;;19.41;67.33;101499.16;6124941;23;19998;-89
2022/07/17 03:39:17;;;;;;;1.75;1.15;;;;;;;19.45;67.56;101488.22;6124950;23;20013;-89
2022/07/17 03:41:43;;;;;;;4.05;1.40;;;;;;;19.44;68.80;101497.19;6124936;23;20329;-89
2022/07/17 03:44:08;;;;;;;2.92;1.27;;;;;;;19.42;68.68;101503.50;6125007;23;20010;-89
2022/07/17 03:46:34;;;;;;;2.95;1.40;;;;;;;19.44;68.34;101497.19;6122832;23;19998;-89
2022/07/17 03:48:59;;;;;;;2.05;1.35;;;;;;;19.36;68.46;101492.53;6124947;23;19998;-89
2022/07/17 03:51:25;;;;;;;2.20;1.55;;;;;;;19.41;68.71;101509.81;6147906;23;20092;-89
2022/07/17 03:53:50;;;;;;;2.60;1.50;;;;;;;19.27;68.99;101486.19;6124813;23;20009;-89
2022/07/17 03:56:15;;;;;;;2.58;1.55;;;;;;;19.30;69.37;101499.25;6125413;23;20137;-89
2022/07/17 03:58:41;;;;;;;1.52;1.25;;;;;;;19.34;69.84;101492.69;6124962;23;20006;-89
2022/07/17 04:01:06;;;;;;;1.60;0.90;;;;;;;19.27;70.56;101496.00;6124572;23;20060;-89
2022/07/17 04:03:31;;;;;;;2.05;1.27;;;;;;;19.22;71.14;101489.28;6124707;23;19998;-89
2022/07/17 04:05:57;;;;;;;2.15;1.23;;;;;;;19.25;71.50;101493.47;6124956;23;20010;-89
2022/07/17 04:08:22;;;;;;;3.38;1.50;;;;;;;19.17;72.13;101485.31;6124602;23;20472;-89
2022/07/17 04:10:48;;;;;;;4.13;1.33;;;;;;;19.15;71.38;101487.28;6125018;23;20036;-89
2022/07/17 04:13:13;;;;;;;3.08;1.80;;;;;;;19.24;71.85;101490.97;6124683;23;20009;-88
2022/07/17 04:15:57;;;;;;;3.70;1.20;;;;;;;19.16;71.63;101481.81;6124106;23;20006;-89
2022/07/17 04:18:28;;;;;;;2.90;1.67;;;;;;;19.31;70.86;101479.66;6124837;23;20078;-89
2022/07/17 04:20:57;;;;;;;2.53;1.23;;;;;;;19.31;70.97;101484.09;6124881;23;20076;-89
2022/07/17 04:23:22;;;;;;;4.03;1.20;;;;;;;19.30;71.40;101487.75;6124294;23;20468;-90
2022/07/17 04:25:48;;;;;;;2.10;1.20;;;;;;;19.22;72.08;101478.63;6124794;23;20165;-89
2022/07/17 04:28:14;;;;;;;2.85;1.02;;;;;;;19.22;72.52;101475.13;6124829;23;20485;-89
2022/07/17 04:30:39;;;;;;;1.27;1.00;;;;;;;19.27;72.43;101477.38;6124117;23;20335;-89
2022/07/17 04:33:05;;;;;;;3.42;1.65;;;;;;;19.18;73.68;101477.19;6124813;23;20341;-90
2022/07/17 04:35:31;;;;;;;1.63;1.02;;;;;;;19.26;73.25;101478.38;6124838;23;20433;-89
2022/07/17 04:37:56;;;;;;;2.90;1.48;;;;;;;19.07;74.08;101463.97;6124886;23;20429;-89
2022/07/17 04:40:22;;;;;;;2.90;1.25;;;;;;;19.09;74.61;101479.81;6123278;23;20013;-89
2022/07/17 04:42:47;;;;;;;5.10;1.77;;;;;;;19.11;74.29;101477.88;6123032;23;20013;-90
2022/07/17 04:45:13;;;;;;;2.08;1.38;;;;;;;19.28;73.93;101463.94;6123960;23;20100;-89
2022/07/17 04:47:39;;;;;;;4.18;1.48;;;;;;;19.26;74.03;101473.03;6124658;23;20398;-90
2022/07/17 04:50:05;;;;;;;2.88;1.15;;;;;;;19.33;73.93;101469.72;6124758;23;20010;-89
2022/07/17 04:52:30;;;;;;;2.88;1.35;;;;;;;19.42;73.87;101466.22;6122772;23;20017;-90
2022/07/17 04:54:56;;;;;;;3.97;2.00;;;;;;;19.44;74.20;101471.41;6124564;23;20002;-89
2022/07/17 04:57:21;;;;;;;4.13;1.48;;;;;;;19.49;73.73;101468.31;6124542;23;20005;-89
2022/07/17 04:59:47;;;;;;;5.45;1.73;;;;;;;19.52;73.94;101468.91;6123411;23;20009;-90
2022/07/17 05:02:12;;;;;;;3.15;1.60;;;;;;;19.54;74.44;101472.25;6124727;23;20013;-89
2022/07/17 05:04:37;;;;;;;2.95;1.50;;;;;;;19.58;74.08;101481.66;6124709;23;20009;-89
2022/07/17 05:07:03;;;;;;;3.05;1.15;;;;;;;19.68;73.40;101473.69;6124744;23;20341;-89
2022/07/17 05:09:28;;;;;;;3.15;1.65;;;;;;;19.69;74.14;101480.72;6124219;23;20113;-89
2022/07/17 05:11:53;;;;;;;4.88;1.50;;;;;;;19.78;73.65;101477.25;6124240;23;20006;-89
2022/07/17 05:14:19;;;;;;;4.65;1.63;;;;;;;19.84;73.86;101483.00;6125125;23;20016;-89
2022/07/17 05:16:44;;;;;;;2.75;1.40;;;;;;;19.88;73.21;101484.41;6126110;23;20006;-89
2022/07/17 05:19:10;;;;;;;5.05;2.22;;;;;;;20.03;72.11;101483.03;6126814;23;19998;-89
2022/07/17 05:21:35;;;;;;;4.10;1.85;;;;;;;20.05;73.25;101486.41;6126523;23;20002;-89
2022/07/17 05:24:00;;;;;;;2.50;1.73;;;;;;;20.06;73.30;101472.06;6126377;23;20425;-89
2022/07/17 05:26:26;;;;;;;3.40;2.00;;;;;;;20.20;72.52;101468.13;6126099;23;20006;-89
2022/07/17 05:28:52;;;;;;;7.85;2.20;;;;;;;20.29;73.69;101471.78;6126123;23;20033;-90
2022/07/17 05:31:17;;;;;;;6.05;2.10;;;;;;;20.23;73.61;101465.19;6126032;23;20484;-89
